createdAt,value
2024-04-02T00:00:05.937Z,999.47
2024-04-02T00:01:50.937Z,999.52
2024-04-02T00:03:35.921Z,999.55
2024-04-02T00:05:20.953Z,999.61
2024-04-02T00:07:05.911Z,999.65
2024-04-02T00:08:50.942Z,999.57
2024-04-02T00:10:35.936Z,999.68
2024-04-02T00:12:20.926Z,999.68
2024-04-02T00:14:05.940Z,999.74
2024-04-02T00:15:50.954Z,999.62
2024-04-02T00:17:35.948Z,999.74
2024-04-02T00:19:20.936Z,999.63
2024-04-02T00:21:05.957Z,999.67
2024-04-02T00:22:50.951Z,999.71
2024-04-02T00:24:35.958Z,999.72
2024-04-02T00:26:20.952Z,999.79
2024-04-02T00:28:05.959Z,999.83
2024-04-02T00:29:50.942Z,999.88
2024-04-02T00:31:36.262Z,999.9
2024-04-02T00:33:20.972Z,999.94
2024-04-02T00:35:05.968Z,999.9
2024-04-02T00:36:50.959Z,999.95
2024-04-02T00:38:35.967Z,1000
2024-04-02T00:40:20.966Z,999.97
2024-04-02T00:42:05.973Z,999.91
2024-04-02T00:43:50.993Z,999.95
2024-04-02T00:45:35.993Z,999.87
2024-04-02T00:47:20.977Z,999.94
2024-04-02T00:49:05.988Z,999.98
2024-04-02T00:50:50.999Z,999.95
2024-04-02T00:52:35.976Z,999.85
2024-04-02T00:54:21.005Z,999.95
2024-04-02T00:56:06.008Z,999.97
2024-04-02T00:57:51.005Z,999.95
2024-04-02T00:59:36.005Z,999.96
2024-04-02T01:01:20.997Z,999.95
2024-04-02T01:03:05.982Z,1000.08
2024-04-02T01:04:50.997Z,999.95
2024-04-02T01:06:36.022Z,1000.06
2024-04-02T01:08:20.996Z,999.94
2024-04-02T01:10:06.005Z,1000.04
2024-04-02T01:11:51.034Z,1000.11
2024-04-02T01:13:35.982Z,1000.11
2024-04-02T01:15:21.010Z,1000.21
2024-04-02T01:17:06.022Z,1000.11
2024-04-02T01:18:51.036Z,1000.23
2024-04-02T01:20:36.019Z,1000.26
2024-04-02T01:22:21.009Z,1000.25
2024-04-02T01:24:06.015Z,1000.13
2024-04-02T01:25:51.007Z,1000.23
2024-04-02T01:27:36.021Z,1000.19
2024-04-02T01:29:21.043Z,1000.18
2024-04-02T01:31:06.011Z,1000.14
2024-04-02T01:32:51.023Z,1000.12
2024-04-02T01:34:36.048Z,1000.14
2024-04-02T01:36:21.035Z,1000.18
2024-04-02T01:38:06.044Z,1000.17
2024-04-02T01:39:51.071Z,1000.26
2024-04-02T01:41:36.037Z,1000.21
2024-04-02T01:43:21.070Z,1000.17
2024-04-02T01:45:06.082Z,1000.19
2024-04-02T01:46:51.068Z,1000.26
2024-04-02T01:48:36.066Z,1000.34
2024-04-02T01:50:21.093Z,1000.28
2024-04-02T01:52:06.063Z,1000.37
2024-04-02T01:53:51.084Z,1000.27
2024-04-02T01:55:36.104Z,1000.38
2024-04-02T01:57:21.080Z,1000.45
2024-04-02T01:59:06.101Z,1000.47
2024-04-02T02:00:51.113Z,1000.46
2024-04-02T02:02:36.099Z,1000.42
2024-04-02T02:04:21.091Z,1000.46
2024-04-02T02:06:06.097Z,1000.59
2024-04-02T02:07:51.108Z,1000.5
2024-04-02T02:09:36.094Z,1000.53
2024-04-02T02:11:21.099Z,1000.53
2024-04-02T02:13:06.135Z,1000.52
2024-04-02T02:14:51.116Z,1000.54
2024-04-02T02:16:36.093Z,1000.53
2024-04-02T02:18:21.129Z,1000.51
2024-04-02T02:20:06.126Z,1000.49
2024-04-02T02:21:51.113Z,1000.58
2024-04-02T02:23:36.118Z,1000.53
2024-04-02T02:25:21.092Z,1000.5
2024-04-02T02:27:06.107Z,1000.52
2024-04-02T02:28:51.123Z,1000.52
2024-04-02T02:30:36.137Z,1000.55
2024-04-02T02:32:21.109Z,1000.6
2024-04-02T02:34:06.109Z,1000.59
2024-04-02T02:35:51.144Z,1000.6
2024-04-02T02:37:36.114Z,1000.57
2024-04-02T02:39:21.132Z,1000.63
2024-04-02T02:41:06.143Z,1000.59
2024-04-02T02:42:51.147Z,1000.79
2024-04-02T02:44:36.134Z,1000.63
2024-04-02T02:46:21.152Z,1000.74
2024-04-02T02:48:06.147Z,1000.78
2024-04-02T02:49:51.137Z,1000.74
2024-04-02T02:51:36.124Z,1000.78
2024-04-02T02:53:21.196Z,1000.77
2024-04-02T02:55:06.164Z,1000.75
2024-04-02T02:56:51.140Z,1000.8
2024-04-02T02:58:36.164Z,1000.8
2024-04-02T03:00:21.142Z,1000.88
2024-04-02T03:02:06.190Z,1000.74
2024-04-02T03:03:51.196Z,1000.89
2024-04-02T03:05:36.163Z,1000.92
2024-04-02T03:07:21.169Z,1000.91
2024-04-02T03:09:06.194Z,1000.82
2024-04-02T03:10:51.158Z,1000.82
2024-04-02T03:12:36.185Z,1000.82
2024-04-02T03:14:21.172Z,1000.83
2024-04-02T03:16:06.159Z,1000.87
2024-04-02T03:17:51.191Z,1000.9
2024-04-02T03:19:36.195Z,1000.94
2024-04-02T03:21:21.157Z,1001
2024-04-02T03:23:06.179Z,1000.99
2024-04-02T03:24:51.167Z,1000.96
2024-04-02T03:26:36.164Z,1001.03
2024-04-02T03:28:21.206Z,1000.98
2024-04-02T03:30:06.185Z,1001.05
2024-04-02T03:31:51.167Z,1000.97
2024-04-02T03:33:36.188Z,1000.98
2024-04-02T03:35:21.198Z,1001.09
2024-04-02T03:37:06.193Z,1001.03
2024-04-02T03:38:51.185Z,1001.09
2024-04-02T03:40:36.190Z,1001.11
2024-04-02T03:42:21.195Z,1001.16
2024-04-02T03:44:06.211Z,1001.08
2024-04-02T03:45:51.203Z,1001.08
2024-04-02T03:47:36.192Z,1001.08
2024-04-02T03:49:21.217Z,1001.13
2024-04-02T03:51:06.175Z,1001.12
2024-04-02T03:52:51.211Z,1001.15
2024-04-02T03:54:36.194Z,1001.15
2024-04-02T03:56:21.212Z,1001.1
2024-04-02T03:58:06.189Z,1001.24
2024-04-02T03:59:51.223Z,1001.24
2024-04-02T04:01:36.203Z,1001.27
2024-04-02T04:03:21.225Z,1001.24
2024-04-02T04:05:06.227Z,1001.29
2024-04-02T04:06:51.219Z,1001.36
2024-04-02T04:08:36.215Z,1001.3
2024-04-02T04:10:21.211Z,1001.33
2024-04-02T04:12:06.256Z,1001.34
2024-04-02T04:13:51.219Z,1001.46
2024-04-02T04:15:36.215Z,1001.33
2024-04-02T04:17:21.248Z,1001.38
2024-04-02T04:19:06.234Z,1001.42
2024-04-02T04:20:51.273Z,1001.43
2024-04-02T04:22:36.217Z,1001.55
2024-04-02T04:24:21.260Z,1001.5
2024-04-02T04:26:06.244Z,1001.47
2024-04-02T04:27:51.248Z,1001.5
2024-04-02T04:29:36.254Z,1001.53
2024-04-02T04:31:21.287Z,1001.5
2024-04-02T04:33:06.256Z,1001.47
2024-04-02T04:34:51.250Z,1001.44
2024-04-02T04:36:36.266Z,1001.54
2024-04-02T04:38:21.291Z,1001.52
2024-04-02T04:40:06.277Z,1001.43
2024-04-02T04:41:51.265Z,1001.62
2024-04-02T04:43:36.255Z,1001.58
2024-04-02T04:45:21.278Z,1001.55
2024-04-02T04:47:06.268Z,1001.54
2024-04-02T04:48:51.285Z,1001.6
2024-04-02T04:50:36.268Z,1001.66
2024-04-02T04:52:22.838Z,1001.5
2024-04-02T04:54:06.257Z,1001.68
2024-04-02T04:55:51.277Z,1001.71
2024-04-02T04:57:36.288Z,1001.65
2024-04-02T04:59:21.307Z,1001.69
2024-04-02T05:01:06.282Z,1001.73
2024-04-02T05:02:51.276Z,1001.72
2024-04-02T05:04:36.303Z,1001.68
2024-04-02T05:06:21.269Z,1001.81
2024-04-02T05:08:06.290Z,1001.76
2024-04-02T05:09:51.291Z,1001.81
2024-04-02T05:11:36.285Z,1001.78
2024-04-02T05:13:21.288Z,1001.8
2024-04-02T05:15:08.307Z,1001.88
2024-04-02T05:16:51.307Z,1001.83
2024-04-02T05:18:36.294Z,1001.91
2024-04-02T05:20:21.313Z,1001.88
2024-04-02T05:22:06.323Z,1001.87
2024-04-02T05:23:51.611Z,1002
2024-04-02T05:25:36.320Z,1001.97
2024-04-02T05:27:21.291Z,1001.96
2024-04-02T05:29:06.294Z,1001.95
2024-04-02T05:30:51.327Z,1001.95
2024-04-02T05:32:36.360Z,1001.94
2024-04-02T05:34:21.300Z,1002.03
2024-04-02T05:36:06.314Z,1001.95
2024-04-02T05:37:51.337Z,1002.09
2024-04-02T05:39:36.341Z,1002.06
2024-04-02T05:41:21.335Z,1002.06
2024-04-02T05:43:06.345Z,1002.06
2024-04-02T05:44:51.314Z,1002.17
2024-04-02T05:46:36.333Z,1002.14
2024-04-02T05:48:21.339Z,1002.21
2024-04-02T05:50:06.341Z,1002.17
2024-04-02T05:51:51.340Z,1002.18
2024-04-02T05:53:36.372Z,1002.21
2024-04-02T05:55:21.341Z,1002.23
2024-04-02T05:57:06.338Z,1002.32
2024-04-02T05:58:51.415Z,1002.22
2024-04-02T06:00:36.371Z,1002.31
2024-04-02T06:02:21.399Z,1002.32
2024-04-02T06:04:06.351Z,1002.29
2024-04-02T06:05:51.359Z,1002.32
2024-04-02T06:07:36.392Z,1002.38
2024-04-02T06:09:21.366Z,1002.3
2024-04-02T06:11:06.391Z,1002.32
2024-04-02T06:12:51.399Z,1002.46
2024-04-02T06:14:36.379Z,1002.38
2024-04-02T06:16:21.710Z,1002.38
2024-04-02T06:18:06.430Z,1002.46
2024-04-02T06:19:51.407Z,1002.33
2024-04-02T06:21:36.406Z,1002.35
2024-04-02T06:23:21.447Z,1002.43
2024-04-02T06:25:06.393Z,1002.35
2024-04-02T06:26:51.432Z,1002.38
2024-04-02T06:28:36.393Z,1002.46
2024-04-02T06:30:21.394Z,1002.37
2024-04-02T06:32:06.411Z,1002.36
2024-04-02T06:33:51.412Z,1002.5
2024-04-02T06:35:36.393Z,1002.42
2024-04-02T06:37:21.791Z,1002.49
2024-04-02T06:39:06.426Z,1002.6
2024-04-02T06:40:51.412Z,1002.52
2024-04-02T06:42:36.442Z,1002.48
2024-04-02T06:44:21.443Z,1002.59
2024-04-02T06:46:06.410Z,1002.6
2024-04-02T06:47:51.404Z,1002.64
2024-04-02T06:49:36.444Z,1002.61
2024-04-02T06:51:21.412Z,1002.63
2024-04-02T06:53:06.424Z,1002.63
2024-04-02T06:54:51.462Z,1002.74
2024-04-02T06:56:36.434Z,1002.79
2024-04-02T06:58:21.451Z,1002.64
2024-04-02T07:00:06.469Z,1002.66
2024-04-02T07:01:51.446Z,1002.67
2024-04-02T07:03:36.467Z,1002.8
2024-04-02T07:05:21.474Z,1002.81
2024-04-02T07:07:06.450Z,1002.79
2024-04-02T07:08:51.473Z,1002.81
2024-04-02T07:10:36.484Z,1002.88
2024-04-02T07:12:21.742Z,1002.88
2024-04-02T07:14:06.508Z,1002.83
2024-04-02T07:15:51.460Z,1002.88
2024-04-02T07:17:36.459Z,1002.87
2024-04-02T07:19:21.469Z,1002.88
2024-04-02T07:21:06.482Z,1002.85
2024-04-02T07:22:51.493Z,1002.85
2024-04-02T07:24:36.498Z,1002.96
2024-04-02T07:26:23.380Z,1002.97
2024-04-02T07:28:06.472Z,1002.89
2024-04-02T07:29:51.512Z,1002.92
2024-04-02T07:31:36.510Z,1002.99
2024-04-02T07:33:21.481Z,1002.99
2024-04-02T07:35:06.490Z,1002.95
2024-04-02T07:36:51.514Z,1003.06
2024-04-02T07:38:36.498Z,1003.07
2024-04-02T07:40:21.498Z,1003.17
2024-04-02T07:42:06.520Z,1003.17
2024-04-02T07:43:53.275Z,1003.18
2024-04-02T07:45:36.514Z,1003.18
2024-04-02T07:47:21.520Z,1003.25
2024-04-02T07:49:06.498Z,1003.35
2024-04-02T07:50:52.440Z,1003.39
2024-04-02T07:52:36.501Z,1003.41
2024-04-02T07:54:21.521Z,1003.45
2024-04-02T07:56:06.524Z,1003.33
2024-04-02T07:57:51.504Z,1003.39
2024-04-02T07:59:36.510Z,1003.41
2024-04-02T08:01:21.536Z,1003.44
2024-04-02T08:03:06.507Z,1003.48
2024-04-02T08:04:53.352Z,1003.5
2024-04-02T08:06:36.528Z,1003.48
2024-04-02T08:08:21.564Z,1003.53
2024-04-02T08:10:07.010Z,1003.48
2024-04-02T08:11:51.528Z,1003.44
2024-04-02T08:13:36.540Z,1003.54
2024-04-02T08:15:21.554Z,1003.37
2024-04-02T08:17:06.567Z,1003.42
2024-04-02T08:18:51.528Z,1003.53
2024-04-02T08:20:36.545Z,1003.52
2024-04-02T08:22:21.561Z,1003.53
2024-04-02T08:24:06.560Z,1003.48
2024-04-02T08:25:51.556Z,1003.54
2024-04-02T08:27:36.557Z,1003.54
2024-04-02T08:29:21.564Z,1003.57
2024-04-02T08:31:06.557Z,1003.71
2024-04-02T08:32:51.585Z,1003.58
2024-04-02T08:34:36.562Z,1003.62
2024-04-02T08:36:21.575Z,1003.61
2024-04-02T08:38:06.595Z,1003.66
2024-04-02T08:39:51.875Z,1003.73
2024-04-02T08:41:36.571Z,1003.67
2024-04-02T08:43:21.590Z,1003.67
2024-04-02T08:45:06.576Z,1003.78
2024-04-02T08:46:51.594Z,1003.72
2024-04-02T08:48:36.994Z,1003.64
2024-04-02T08:50:21.642Z,1003.71
2024-04-02T08:52:06.614Z,1003.76
2024-04-02T08:53:51.595Z,1003.84
2024-04-02T08:55:36.617Z,1003.8
2024-04-02T08:57:21.604Z,1003.89
2024-04-02T08:59:06.622Z,1003.85
2024-04-02T09:00:51.614Z,1003.78
2024-04-02T09:02:36.616Z,1003.91
2024-04-02T09:04:21.632Z,1003.79
2024-04-02T09:06:06.635Z,1003.88
2024-04-02T09:07:51.646Z,1003.9
2024-04-02T09:09:36.673Z,1003.87
2024-04-02T09:11:21.657Z,1003.85
2024-04-02T09:13:06.639Z,1003.89
2024-04-02T09:14:51.626Z,1004.03
2024-04-02T09:16:36.623Z,1004.03
2024-04-02T09:18:21.647Z,1003.95
2024-04-02T09:20:06.659Z,1003.93
2024-04-02T09:21:51.635Z,1004.01
2024-04-02T09:23:36.664Z,1003.92
2024-04-02T09:25:21.632Z,1004.05
2024-04-02T09:27:06.643Z,1004
2024-04-02T09:28:51.685Z,1003.95
2024-04-02T09:30:36.663Z,1004.02
2024-04-02T09:32:21.684Z,1004.01
2024-04-02T09:34:06.673Z,1003.99
2024-04-02T09:35:51.706Z,1003.9
2024-04-02T09:37:36.662Z,1003.91
2024-04-02T09:39:21.685Z,1003.89
2024-04-02T09:41:06.689Z,1003.9
2024-04-02T09:42:51.979Z,1003.93
2024-04-02T09:44:36.670Z,1003.84
2024-04-02T09:46:21.683Z,1003.96
2024-04-02T09:48:06.676Z,1003.92
2024-04-02T09:49:51.686Z,1004.04
2024-04-02T09:51:36.707Z,1004.05
2024-04-02T09:53:21.700Z,1003.95
2024-04-02T09:55:06.676Z,1004.09
2024-04-02T09:56:51.735Z,1004.21
2024-04-02T09:58:36.919Z,1004.13
2024-04-02T10:00:21.904Z,1004.1
2024-04-02T10:02:06.751Z,1004.19
2024-04-02T10:03:51.808Z,1004.1
2024-04-02T10:05:36.930Z,1004.14
2024-04-02T10:07:21.968Z,1004.11
2024-04-02T10:09:06.694Z,1004.14
2024-04-02T10:10:51.742Z,1004.13
2024-04-02T10:12:36.723Z,1004.21
2024-04-02T10:14:21.727Z,1004.03
2024-04-02T10:16:06.713Z,1004.08
2024-04-02T10:17:51.729Z,1004.12
2024-04-02T10:19:36.723Z,1004.18
2024-04-02T10:21:21.714Z,1004.11
2024-04-02T10:23:07.032Z,1004.1
2024-04-02T10:24:51.713Z,1004.04
2024-04-02T10:26:36.736Z,1004
2024-04-02T10:28:21.737Z,1004.13
2024-04-02T10:30:06.716Z,1004.09
2024-04-02T10:31:51.740Z,1004.1
2024-04-02T10:33:36.730Z,1004.1
2024-04-02T10:35:21.716Z,1003.99
2024-04-02T10:37:08.016Z,1003.91
2024-04-02T10:38:51.750Z,1004.1
2024-04-02T10:40:37.045Z,1004.01
2024-04-02T10:42:21.732Z,1003.9
2024-04-02T10:44:06.743Z,1003.93
2024-04-02T10:45:51.766Z,1003.95
2024-04-02T10:47:36.796Z,1004.01
2024-04-02T10:49:21.745Z,1003.95
2024-04-02T10:51:06.775Z,1003.89
2024-04-02T10:52:51.779Z,1003.88
2024-04-02T10:54:38.040Z,1003.78
2024-04-02T10:56:21.785Z,1003.86
2024-04-02T10:58:06.760Z,1003.93
2024-04-02T10:59:51.768Z,1003.77
2024-04-02T11:01:36.814Z,1003.72
2024-04-02T11:03:21.787Z,1003.89
2024-04-02T11:05:06.810Z,1004.05
2024-04-02T11:06:51.814Z,1004
2024-04-02T11:08:36.785Z,1004.03
2024-04-02T11:10:21.808Z,1004.1
2024-04-02T11:12:07.103Z,1004.06
2024-04-02T11:13:51.807Z,1004.04
2024-04-02T11:15:36.795Z,1004.12
2024-04-02T11:17:21.811Z,1004.13
2024-04-02T11:19:06.930Z,1004.24
2024-04-02T11:20:51.793Z,1004.16
2024-04-02T11:22:36.797Z,1004.27
2024-04-02T11:24:21.834Z,1004.28
2024-04-02T11:26:06.835Z,1004.35
2024-04-02T11:27:51.814Z,1004.28
2024-04-02T11:29:36.843Z,1004.28
2024-04-02T11:31:21.830Z,1004.38
2024-04-02T11:33:06.807Z,1004.38
2024-04-02T11:34:51.849Z,1004.52
2024-04-02T11:36:36.828Z,1004.45
2024-04-02T11:38:21.823Z,1004.42
2024-04-02T11:40:06.852Z,1004.46
2024-04-02T11:41:52.588Z,1004.61
2024-04-02T11:43:36.873Z,1004.46
2024-04-02T11:45:21.856Z,1004.65
2024-04-02T11:47:06.890Z,1004.53
2024-04-02T11:48:51.879Z,1004.54
2024-04-02T11:50:36.878Z,1004.61
2024-04-02T11:52:21.886Z,1004.66
2024-04-02T11:54:06.858Z,1004.59
2024-04-02T11:55:51.903Z,1004.66
2024-04-02T11:57:37.002Z,1004.67
2024-04-02T11:59:21.893Z,1004.59
2024-04-02T12:01:08.328Z,1004.71
2024-04-02T12:02:51.858Z,1004.62
2024-04-02T12:04:36.867Z,1004.55
2024-04-02T12:06:21.919Z,1004.74
2024-04-02T12:08:06.891Z,1004.79
2024-04-02T12:09:51.863Z,1004.84
2024-04-02T12:11:36.871Z,1004.73
2024-04-02T12:13:22.199Z,1004.74
2024-04-02T12:15:06.872Z,1004.8
2024-04-02T12:16:51.899Z,1004.77
2024-04-02T12:18:36.893Z,1004.76
2024-04-02T12:20:21.895Z,1004.76
2024-04-02T12:22:06.899Z,1004.92
2024-04-02T12:23:51.914Z,1004.9
2024-04-02T12:25:36.884Z,1004.93
2024-04-02T12:27:21.922Z,1004.88
2024-04-02T12:29:06.931Z,1004.87
2024-04-02T12:30:51.894Z,1005.04
2024-04-02T12:32:36.928Z,1004.98
2024-04-02T12:34:21.927Z,1005.02
2024-04-02T12:36:06.910Z,1005.07
2024-04-02T12:37:51.900Z,1004.94
2024-04-02T12:39:36.923Z,1004.9
2024-04-02T12:41:21.942Z,1004.98
2024-04-02T12:43:06.907Z,1004.86
2024-04-02T12:44:51.972Z,1004.85
2024-04-02T12:46:36.909Z,1004.76
2024-04-02T12:48:21.933Z,1004.79
2024-04-02T12:50:06.921Z,1004.85
2024-04-02T12:51:51.942Z,1004.79
2024-04-02T12:53:36.949Z,1004.76
2024-04-02T12:55:21.943Z,1004.79
2024-04-02T12:57:06.946Z,1004.8
2024-04-02T12:58:51.935Z,1004.81
2024-04-02T13:00:37.009Z,1004.77
2024-04-02T13:02:21.954Z,1004.79
2024-04-02T13:04:06.942Z,1004.69
2024-04-02T13:05:51.948Z,1004.8
2024-04-02T13:07:36.976Z,1004.82
2024-04-02T13:09:21.943Z,1004.76
2024-04-02T13:11:06.946Z,1004.74
2024-04-02T13:12:51.968Z,1004.74
2024-04-02T13:14:36.939Z,1004.72
2024-04-02T13:16:21.959Z,1004.59
2024-04-02T13:18:06.993Z,1004.67
2024-04-02T13:19:52.007Z,1004.71
2024-04-02T13:21:36.992Z,1004.63
2024-04-02T13:23:21.994Z,1004.73
2024-04-02T13:25:06.994Z,1004.76
2024-04-02T13:26:52.039Z,1004.68
2024-04-02T13:28:36.983Z,1004.69
2024-04-02T13:30:21.980Z,1004.83
2024-04-02T13:32:07.026Z,1004.76
2024-04-02T13:33:51.976Z,1004.73
2024-04-02T13:35:37.013Z,1004.79
2024-04-02T13:37:22.041Z,1004.68
2024-04-02T13:39:07.011Z,1004.67
2024-04-02T13:40:52.040Z,1004.73
2024-04-02T13:42:37.030Z,1004.66
2024-04-02T13:44:22.016Z,1004.75
2024-04-02T13:46:07.019Z,1004.7
2024-04-02T13:47:52.053Z,1004.72
2024-04-02T13:49:36.998Z,1004.73
2024-04-02T13:51:22.314Z,1004.65
2024-04-02T13:53:07.028Z,1004.76
2024-04-02T13:54:51.998Z,1004.65
2024-04-02T13:56:37.026Z,1004.74
2024-04-02T13:58:22.002Z,1004.67
2024-04-02T14:00:07.028Z,1004.81
2024-04-02T14:01:52.041Z,1004.63
2024-04-02T14:03:37.036Z,1004.73
2024-04-02T14:05:22.037Z,1004.78
2024-04-02T14:07:07.039Z,1004.77
2024-04-02T14:08:52.055Z,1004.72
2024-04-02T14:10:37.083Z,1004.75
2024-04-02T14:12:22.082Z,1004.77
2024-04-02T14:14:07.039Z,1004.69
2024-04-02T14:15:52.059Z,1004.71
2024-04-02T14:17:37.063Z,1004.69
2024-04-02T14:19:22.098Z,1004.71
2024-04-02T14:21:07.050Z,1004.7
2024-04-02T14:22:52.075Z,1004.74
2024-04-02T14:24:37.073Z,1004.83
2024-04-02T14:26:22.070Z,1004.71
2024-04-02T14:28:07.399Z,1004.66
2024-04-02T14:29:52.123Z,1004.62
2024-04-02T14:31:37.396Z,1004.7
2024-04-02T14:33:22.067Z,1004.75
2024-04-02T14:35:07.508Z,1004.6
2024-04-02T14:36:52.073Z,1004.59
2024-04-02T14:38:37.076Z,1004.75
2024-04-02T14:40:22.124Z,1004.76
2024-04-02T14:42:07.103Z,1004.76
2024-04-02T14:43:52.083Z,1004.77
2024-04-02T14:45:37.114Z,1004.75
2024-04-02T14:47:22.117Z,1004.59
2024-04-02T14:49:07.091Z,1004.71
2024-04-02T14:50:52.156Z,1004.53
2024-04-02T14:52:37.115Z,1004.69
2024-04-02T14:54:22.127Z,1004.61
2024-04-02T14:56:07.087Z,1004.72
2024-04-02T14:57:52.117Z,1004.55
2024-04-02T14:59:37.111Z,1004.57
2024-04-02T15:01:22.103Z,1004.51
2024-04-02T15:03:07.128Z,1004.58
2024-04-02T15:04:52.123Z,1004.5
2024-04-02T15:06:37.124Z,1004.48
2024-04-02T15:08:22.125Z,1004.54
2024-04-02T15:10:07.136Z,1004.56
2024-04-02T15:11:52.140Z,1004.5
2024-04-02T15:13:37.189Z,1004.5
2024-04-02T15:15:22.152Z,1004.56
2024-04-02T15:17:07.151Z,1004.49
2024-04-02T15:18:52.119Z,1004.57
2024-04-02T15:20:37.134Z,1004.56
2024-04-02T15:22:22.186Z,1004.59
2024-04-02T15:24:07.130Z,1004.5
2024-04-02T15:25:52.131Z,1004.58
2024-04-02T15:27:37.157Z,1004.55
2024-04-02T15:29:22.157Z,1004.5
2024-04-02T15:31:07.152Z,1004.55
2024-04-02T15:32:52.154Z,1004.55
2024-04-02T15:34:37.137Z,1004.52
2024-04-02T15:36:22.180Z,1004.58
2024-04-02T15:38:07.173Z,1004.43
2024-04-02T15:39:52.798Z,1004.58
2024-04-02T15:41:37.175Z,1004.53
2024-04-02T15:43:22.192Z,1004.53
2024-04-02T15:45:07.301Z,1004.54
2024-04-02T15:46:52.245Z,1004.5
2024-04-02T15:48:37.238Z,1004.48
2024-04-02T15:50:22.193Z,1004.38
2024-04-02T15:52:07.535Z,1004.35
2024-04-02T15:53:52.261Z,1004.44
2024-04-02T15:55:37.189Z,1004.37
2024-04-02T15:57:22.473Z,1004.31
2024-04-02T15:59:07.508Z,1004.44
2024-04-02T16:00:52.185Z,1004.52
2024-04-02T16:02:37.186Z,1004.4
2024-04-02T16:04:22.211Z,1004.45
2024-04-02T16:06:07.171Z,1004.48
2024-04-02T16:07:52.211Z,1004.47
2024-04-02T16:09:37.208Z,1004.53
2024-04-02T16:11:22.205Z,1004.55
2024-04-02T16:13:07.196Z,1004.47
2024-04-02T16:14:52.209Z,1004.61
2024-04-02T16:16:37.201Z,1004.56
2024-04-02T16:18:22.227Z,1004.67
2024-04-02T16:20:07.214Z,1004.6
2024-04-02T16:21:52.192Z,1004.67
2024-04-02T16:23:37.190Z,1004.76
2024-04-02T16:25:22.236Z,1004.62
2024-04-02T16:27:07.852Z,1004.76
2024-04-02T16:28:52.213Z,1004.72
2024-04-02T16:30:37.194Z,1004.72
2024-04-02T16:32:22.223Z,1004.67
2024-04-02T16:34:07.223Z,1004.76
2024-04-02T16:35:52.210Z,1004.72
2024-04-02T16:37:37.234Z,1004.69
2024-04-02T16:39:22.214Z,1004.63
2024-04-02T16:41:07.238Z,1004.78
2024-04-02T16:42:52.229Z,1004.86
2024-04-02T16:44:37.212Z,1004.76
2024-04-02T16:46:22.226Z,1004.76
2024-04-02T16:48:07.253Z,1004.89
2024-04-02T16:49:52.254Z,1004.81
2024-04-02T16:51:37.259Z,1004.93
2024-04-02T16:53:22.244Z,1004.96
2024-04-02T16:55:07.239Z,1004.96
2024-04-02T16:56:52.251Z,1004.97
2024-04-02T16:58:37.277Z,1004.96
2024-04-02T17:00:22.222Z,1005.11
2024-04-02T17:02:07.216Z,1004.9
2024-04-02T17:03:52.318Z,1005.05
2024-04-02T17:05:37.263Z,1005.03
2024-04-02T17:07:22.265Z,1005.05
2024-04-02T17:09:07.258Z,1005.05
2024-04-02T17:10:52.596Z,1005.06
2024-04-02T17:12:37.300Z,1005.11
2024-04-02T17:14:22.265Z,1005.08
2024-04-02T17:16:07.276Z,1005.01
2024-04-02T17:17:52.317Z,1004.85
2024-04-02T17:19:37.261Z,1004.87
2024-04-02T17:21:22.257Z,1004.85
2024-04-02T17:23:07.308Z,1004.85
2024-04-02T17:24:52.265Z,1004.85
2024-04-02T17:26:37.272Z,1004.82
2024-04-02T17:28:22.295Z,1004.82
2024-04-02T17:30:08.277Z,1004.9
2024-04-02T17:31:52.309Z,1004.89
2024-04-02T17:33:37.292Z,1004.92
2024-04-02T17:35:22.277Z,1004.92
2024-04-02T17:37:07.303Z,1004.88
2024-04-02T17:38:52.353Z,1005.1
2024-04-02T17:40:37.303Z,1005.1
2024-04-02T17:42:22.297Z,1005.06
2024-04-02T17:44:07.346Z,1005.05
2024-04-02T17:45:52.303Z,1005.11
2024-04-02T17:47:37.309Z,1005.12
2024-04-02T17:49:22.335Z,1005.08
2024-04-02T17:51:07.344Z,1005.02
2024-04-02T17:52:54.966Z,1005.03
2024-04-02T17:54:37.337Z,1005.05
2024-04-02T17:56:22.357Z,1005.13
2024-04-02T17:58:07.342Z,1005.08
2024-04-02T17:59:52.365Z,1005.08
2024-04-02T18:01:37.347Z,1005.08
2024-04-02T18:03:22.321Z,1005.11
2024-04-02T18:05:07.339Z,1005.14
2024-04-02T18:06:52.426Z,1005.16
2024-04-02T18:08:37.327Z,1005.17
2024-04-02T18:10:22.337Z,1005.14
2024-04-02T18:12:07.357Z,1005.14
2024-04-02T18:13:52.356Z,1005.21
2024-04-02T18:15:37.348Z,1005.2
2024-04-02T18:17:22.341Z,1005.21
2024-04-02T18:19:07.369Z,1005.11
2024-04-02T18:20:52.375Z,1005.12
2024-04-02T18:22:37.385Z,1005.24
2024-04-02T18:24:22.641Z,1005.2
2024-04-02T18:26:07.369Z,1005.11
2024-04-02T18:27:53.847Z,1005.15
2024-04-02T18:29:37.359Z,1005.18
2024-04-02T18:31:22.378Z,1005.24
2024-04-02T18:33:07.370Z,1005.1
2024-04-02T18:34:52.377Z,1005.22
2024-04-02T18:36:37.368Z,1005.21
2024-04-02T18:38:22.400Z,1005.25
2024-04-02T18:40:09.158Z,1005.32
2024-04-02T18:41:52.391Z,1005.25
2024-04-02T18:43:37.410Z,1005.2
2024-04-02T18:45:22.366Z,1005.31
2024-04-02T18:47:07.418Z,1005.14
2024-04-02T18:48:52.416Z,1005.15
2024-04-02T18:50:37.389Z,1005.16
2024-04-02T18:52:22.406Z,1005.26
2024-04-02T18:54:07.379Z,1005.2
2024-04-02T18:55:52.396Z,1005.28
2024-04-02T18:57:37.463Z,1005.31
2024-04-02T18:59:22.412Z,1005.34
2024-04-02T19:01:07.454Z,1005.37
2024-04-02T19:02:52.508Z,1005.35
2024-04-02T19:04:37.450Z,1005.32
2024-04-02T19:06:22.435Z,1005.35
2024-04-02T19:08:07.452Z,1005.41
2024-04-02T19:09:52.452Z,1005.41
2024-04-02T19:11:37.451Z,1005.42
2024-04-02T19:13:22.430Z,1005.47
2024-04-02T19:15:07.500Z,1005.43
2024-04-02T19:16:52.569Z,1005.49
2024-04-02T19:18:37.458Z,1005.49
2024-04-02T19:20:22.456Z,1005.43
2024-04-02T19:22:07.440Z,1005.42
2024-04-02T19:23:52.428Z,1005.45
2024-04-02T19:25:37.474Z,1005.42
2024-04-02T19:27:22.436Z,1005.44
2024-04-02T19:29:07.461Z,1005.36
2024-04-02T19:30:52.424Z,1005.4
2024-04-02T19:32:39.223Z,1005.39
2024-04-02T19:34:22.492Z,1005.28
2024-04-02T19:36:07.477Z,1005.34
2024-04-02T19:37:52.469Z,1005.32
2024-04-02T19:39:37.494Z,1005.27
2024-04-02T19:41:22.458Z,1005.38
2024-04-02T19:43:07.476Z,1005.34
2024-04-02T19:44:52.485Z,1005.32
2024-04-02T19:46:37.474Z,1005.31
2024-04-02T19:48:22.496Z,1005.43
2024-04-02T19:50:07.471Z,1005.38
2024-04-02T19:51:52.471Z,1005.34
2024-04-02T19:53:37.488Z,1005.33
2024-04-02T19:55:22.472Z,1005.36
2024-04-02T19:57:07.471Z,1005.26
2024-04-02T19:58:54.844Z,1005.31
2024-04-02T20:00:37.484Z,1005.32
2024-04-02T20:02:22.504Z,1005.34
2024-04-02T20:04:07.476Z,1005.39
2024-04-02T20:05:52.501Z,1005.39
2024-04-02T20:07:37.506Z,1005.4
2024-04-02T20:09:22.533Z,1005.38
2024-04-02T20:11:07.499Z,1005.37
2024-04-02T20:12:52.486Z,1005.36
2024-04-02T20:14:37.501Z,1005.36
2024-04-02T20:16:22.502Z,1005.34
2024-04-02T20:18:07.516Z,1005.32
2024-04-02T20:19:52.504Z,1005.39
2024-04-02T20:21:37.540Z,1005.3
2024-04-02T20:23:22.496Z,1005.26
2024-04-02T20:25:07.520Z,1005.37
2024-04-02T20:26:52.531Z,1005.37
2024-04-02T20:28:37.501Z,1005.31
2024-04-02T20:30:22.545Z,1005.28
2024-04-02T20:32:07.537Z,1005.41
2024-04-02T20:33:52.526Z,1005.34
2024-04-02T20:35:37.519Z,1005.3
2024-04-02T20:37:22.575Z,1005.33
2024-04-02T20:39:07.512Z,1005.29
2024-04-02T20:40:52.545Z,1005.34
2024-04-02T20:42:37.534Z,1005.26
2024-04-02T20:44:24.824Z,1005.25
2024-04-02T20:46:07.552Z,1005.21
2024-04-02T20:47:56.878Z,1005.28
2024-04-02T20:49:37.535Z,1005.26
2024-04-02T20:51:22.537Z,1005.25
2024-04-02T20:53:07.611Z,1005.28
2024-04-02T20:54:52.544Z,1005.29
2024-04-02T20:56:37.537Z,1005.28
2024-04-02T20:58:22.565Z,1005.25
2024-04-02T21:00:07.593Z,1005.24
2024-04-02T21:01:52.564Z,1005.21
2024-04-02T21:03:37.577Z,1005.21
2024-04-02T21:05:22.571Z,1005.28
2024-04-02T21:07:07.594Z,1005.21
2024-04-02T21:08:52.563Z,1005.25
2024-04-02T21:10:37.578Z,1005.25
2024-04-02T21:12:22.563Z,1005.27
2024-04-02T21:14:07.566Z,1005.27
2024-04-02T21:15:52.608Z,1005.19